createdAt,value
2022-10-03T00:02:12.455Z,11.36
2022-10-03T00:04:59.048Z,11.35
2022-10-03T00:07:48.828Z,11.48
2022-10-03T00:10:29.314Z,11.27
2022-10-03T00:13:20.579Z,11.21
2022-10-03T00:15:57.030Z,11.24
2022-10-03T00:18:41.452Z,11.22
2022-10-03T00:21:28.541Z,11.29
2022-10-03T00:24:11.518Z,11.39
2022-10-03T00:26:48.631Z,11.30
2022-10-03T00:29:38.695Z,11.31
2022-10-03T00:32:21.222Z,11.36
2022-10-03T00:35:12.376Z,11.36
2022-10-03T00:37:50.561Z,11.28
2022-10-03T00:40:55.949Z,11.38
2022-10-03T00:43:57.219Z,11.32
2022-10-03T00:46:49.957Z,11.33
2022-10-03T00:49:49.748Z,11.31
2022-10-03T00:52:42.949Z,11.18
2022-10-03T00:55:26.275Z,11.16
2022-10-03T00:58:16.953Z,11.23
2022-10-03T01:00:53.759Z,11.25
2022-10-03T01:03:49.256Z,11.28
2022-10-03T01:06:36.968Z,11.30
2022-10-03T01:09:23.929Z,11.33
2022-10-03T01:12:14.053Z,11.22
2022-10-03T01:15:05.291Z,11.36
2022-10-03T01:17:48.635Z,11.37
2022-10-03T01:20:30.394Z,11.38
2022-10-03T01:23:28.644Z,11.44
2022-10-03T01:26:22.478Z,11.52
2022-10-03T01:29:22.877Z,11.55
2022-10-03T01:31:59.089Z,11.52
2022-10-03T01:34:33.947Z,11.58
2022-10-03T01:37:12.311Z,11.60
2022-10-03T01:39:51.957Z,11.53
2022-10-03T01:42:38.284Z,11.55
2022-10-03T01:45:31.128Z,11.55
2022-10-03T01:48:05.120Z,11.46
2022-10-03T01:50:41.593Z,11.46
2022-10-03T01:53:17.751Z,11.47
2022-10-03T01:55:58.885Z,11.46
2022-10-03T01:58:38.667Z,11.51
2022-10-03T02:01:15.002Z,11.55
2022-10-03T02:03:53.069Z,11.49
2022-10-03T02:06:32.611Z,11.54
2022-10-03T02:09:12.823Z,11.53
2022-10-03T02:11:57.566Z,11.50
2022-10-03T02:14:37.480Z,11.43
2022-10-03T02:17:19.133Z,11.37
2022-10-03T02:19:58.387Z,11.31
2022-10-03T02:22:34.220Z,11.31
2022-10-03T02:25:22.354Z,11.32
2022-10-03T02:28:16.407Z,11.30
2022-10-03T02:31:06.853Z,11.32
2022-10-03T02:33:57.201Z,11.18
2022-10-03T02:36:46.306Z,11.28
2022-10-03T02:39:46.134Z,11.27
2022-10-03T02:42:41.432Z,11.27
2022-10-03T02:45:32.371Z,11.30
2022-10-03T02:48:35.220Z,11.19
2022-10-03T02:51:33.758Z,11.28
2022-10-03T02:54:36.684Z,11.19
2022-10-03T02:57:37.695Z,11.20
2022-10-03T03:00:14.783Z,11.26
2022-10-03T03:03:11.904Z,11.18
2022-10-03T03:06:14.107Z,11.19
2022-10-03T03:09:10.202Z,11.24
2022-10-03T03:12:07.612Z,11.28
2022-10-03T03:15:18.488Z,11.29
2022-10-03T03:17:55.379Z,11.36
2022-10-03T03:20:57.608Z,11.39
2022-10-03T03:23:57.505Z,11.42
2022-10-03T03:26:51.249Z,11.41
2022-10-03T03:29:32.065Z,11.36
2022-10-03T03:32:13.871Z,11.34
2022-10-03T03:34:53.190Z,11.35
2022-10-03T03:37:29.177Z,11.28
2022-10-03T03:40:09.970Z,11.33
2022-10-03T03:43:00.446Z,11.32
2022-10-03T03:45:42.109Z,11.26
2022-10-03T03:48:31.235Z,11.31
2022-10-03T03:51:18.694Z,11.27
2022-10-03T03:54:05.878Z,11.27
2022-10-03T03:57:02.035Z,11.29
2022-10-03T03:59:50.674Z,11.32
2022-10-03T04:02:33.577Z,11.32
2022-10-03T04:05:16.025Z,11.32
2022-10-03T04:07:59.046Z,11.27
2022-10-03T04:10:45.513Z,11.26
2022-10-03T04:13:37.118Z,11.25
2022-10-03T04:16:46.878Z,11.22
2022-10-03T04:19:27.466Z,11.23
2022-10-03T04:22:24.271Z,11.24
2022-10-03T04:25:26.467Z,11.14
2022-10-03T04:28:21.630Z,11.16
2022-10-03T04:31:06.978Z,11.18
2022-10-03T04:33:55.221Z,11.19
2022-10-03T04:37:01.867Z,11.27
2022-10-03T04:39:40.757Z,11.35
2022-10-03T04:42:27.322Z,11.37
2022-10-03T04:45:15.403Z,11.30
2022-10-03T04:47:50.852Z,11.21
2022-10-03T04:50:40.927Z,11.21
2022-10-03T04:53:31.652Z,11.22
2022-10-03T04:56:14.743Z,11.14
2022-10-03T04:58:53.789Z,11.13
2022-10-03T05:01:29.998Z,11.10
2022-10-03T05:04:10.845Z,11.07
2022-10-03T05:06:51.217Z,11.09
2022-10-03T05:09:33.683Z,11.16
2022-10-03T05:12:13.879Z,11.16
2022-10-03T05:15:10.942Z,11.16
2022-10-03T05:17:51.835Z,11.14
2022-10-03T05:20:38.653Z,11.19
2022-10-03T05:23:22.236Z,11.19
2022-10-03T05:26:23.262Z,11.20
2022-10-03T05:29:00.074Z,11.15
2022-10-03T05:31:47.485Z,11.23
2022-10-03T05:34:29.035Z,11.22
2022-10-03T05:37:25.779Z,11.16
2022-10-03T05:40:03.388Z,11.03
2022-10-03T05:42:42.354Z,10.96
2022-10-03T05:45:30.576Z,11.01
2022-10-03T05:48:17.297Z,10.97
2022-10-03T05:51:13.583Z,11.01
2022-10-03T05:54:22.917Z,10.89
2022-10-03T05:57:18.305Z,10.91
2022-10-03T06:00:08.396Z,10.92
2022-10-03T06:03:09.742Z,10.99
2022-10-03T06:06:01.897Z,10.98
2022-10-03T06:08:53.042Z,10.98
2022-10-03T06:11:59.176Z,11.08
2022-10-03T06:14:42.314Z,11.08
2022-10-03T06:17:31.435Z,11.13
2022-10-03T06:20:14.886Z,11.12
2022-10-03T06:23:14.855Z,11.16
2022-10-03T06:26:07.356Z,11.01
2022-10-03T06:29:05.756Z,11.03
2022-10-03T06:32:04.819Z,11.13
2022-10-03T06:34:55.444Z,11.19
2022-10-03T06:38:02.758Z,11.15
2022-10-03T06:41:04.221Z,10.99
2022-10-03T06:43:57.337Z,11.02
2022-10-03T06:47:02.802Z,11.07
2022-10-03T06:49:43.255Z,10.97
2022-10-03T06:52:33.799Z,10.96
2022-10-03T06:55:34.450Z,10.91
2022-10-03T06:58:35.558Z,11.02
2022-10-03T07:01:28.996Z,11.03
2022-10-03T07:04:19.683Z,11.09
2022-10-03T07:07:17.465Z,11.00
2022-10-03T07:10:29.173Z,11.04
2022-10-03T07:13:39.509Z,10.99
2022-10-03T07:16:36.806Z,11.07
2022-10-03T07:19:27.206Z,10.94
2022-10-03T07:22:39.969Z,10.85
2022-10-03T07:25:59.891Z,10.96
2022-10-03T07:28:48.804Z,10.97
2022-10-03T07:31:30.875Z,10.98
2022-10-03T07:34:34.131Z,10.97
2022-10-03T07:37:47.053Z,10.98
2022-10-03T07:40:47.730Z,10.90
2022-10-03T07:44:04.117Z,10.94
2022-10-03T07:47:12.335Z,10.97
2022-10-03T07:50:03.829Z,11.08
2022-10-03T07:53:02.771Z,11.02
2022-10-03T07:55:55.117Z,11.10
2022-10-03T07:58:43.265Z,11.22
2022-10-03T08:01:39.264Z,11.11
2022-10-03T08:04:35.579Z,11.17
2022-10-03T08:07:29.591Z,11.23
2022-10-03T08:10:22.317Z,11.17
2022-10-03T08:13:10.590Z,11.12
2022-10-03T08:15:56.298Z,11.13
2022-10-03T08:18:56.064Z,11.08
2022-10-03T08:21:32.717Z,11.16
2022-10-03T08:24:26.103Z,11.29
2022-10-03T08:27:16.604Z,11.32
2022-10-03T08:30:08.524Z,11.33
2022-10-03T08:33:07.399Z,11.36
2022-10-03T08:36:12.640Z,11.43
2022-10-03T08:39:01.544Z,11.44
2022-10-03T08:42:04.065Z,11.53
2022-10-03T08:45:16.283Z,11.42
2022-10-03T08:48:25.153Z,11.60
2022-10-03T08:51:18.597Z,11.67
2022-10-03T08:54:18.405Z,11.74
2022-10-03T08:57:09.732Z,11.86
2022-10-03T09:00:09.318Z,11.93
2022-10-03T09:03:33.951Z,11.94
2022-10-03T09:07:12.251Z,11.97
2022-10-03T09:10:10.383Z,12.03
2022-10-03T09:13:14.515Z,12.21
2022-10-03T09:16:18.376Z,12.25
2022-10-03T09:19:08.892Z,12.41
2022-10-03T09:22:10.130Z,12.50
2022-10-03T09:25:06.859Z,12.62
2022-10-03T09:28:01.495Z,12.62
2022-10-03T09:30:47.625Z,12.74
2022-10-03T09:33:55.400Z,12.74
2022-10-03T09:37:04.086Z,12.70
2022-10-03T09:40:02.314Z,12.81
2022-10-03T09:43:05.644Z,12.79
2022-10-03T09:46:08.479Z,12.98
2022-10-03T09:49:10.835Z,13.31
2022-10-03T09:51:51.762Z,13.27
2022-10-03T09:54:51.970Z,13.17
2022-10-03T09:57:57.317Z,13.00
2022-10-03T10:00:30.373Z,12.98
2022-10-03T10:03:42.730Z,12.91
2022-10-03T10:06:30.614Z,12.72
2022-10-03T10:09:30.148Z,12.61
2022-10-03T10:12:25.572Z,12.57
2022-10-03T10:15:24.056Z,12.56
2022-10-03T10:18:18.836Z,12.61
2022-10-03T10:21:24.515Z,12.65
2022-10-03T10:24:07.369Z,12.77
2022-10-03T10:27:11.073Z,12.95
2022-10-03T10:30:03.840Z,13.48
2022-10-03T10:33:17.377Z,13.72
2022-10-03T10:36:28.637Z,13.51
2022-10-03T10:39:24.536Z,13.37
2022-10-03T10:42:37.803Z,13.40
2022-10-03T10:45:39.120Z,13.28
2022-10-03T10:48:40.772Z,13.19
2022-10-03T10:51:55.270Z,13.10
2022-10-03T10:55:03.830Z,13.09
2022-10-03T10:58:09.581Z,13.04
2022-10-03T11:01:12.547Z,13.10
2022-10-03T11:04:21.990Z,13.14
2022-10-03T11:07:19.674Z,13.43
2022-10-03T11:10:32.188Z,13.51
2022-10-03T11:13:37.362Z,13.49
2022-10-03T11:16:38.495Z,13.61
2022-10-03T11:19:53.099Z,13.58
2022-10-03T11:23:08.710Z,13.53
2022-10-03T11:26:11.769Z,13.48
2022-10-03T11:29:14.023Z,13.62
2022-10-03T11:32:31.502Z,14.16
2022-10-03T11:35:32.311Z,14.63
2022-10-03T11:38:14.113Z,14.38
2022-10-03T11:40:58.027Z,14.45
2022-10-03T11:44:01.504Z,14.40
2022-10-03T11:46:49.766Z,14.49
2022-10-03T11:49:37.220Z,14.81
2022-10-03T11:52:17.941Z,15.42
2022-10-03T11:54:54.653Z,16.13
2022-10-03T11:57:33.620Z,16.54
2022-10-03T12:00:08.668Z,16.87
2022-10-03T12:02:57.378Z,17.30
2022-10-03T12:05:40.485Z,17.43
2022-10-03T12:08:49.775Z,17.49
2022-10-03T12:11:29.282Z,17.26
2022-10-03T12:14:17.150Z,16.83
2022-10-03T12:17:01.455Z,16.16
2022-10-03T12:19:36.775Z,15.59
2022-10-03T12:22:16.643Z,15.22
2022-10-03T12:24:48.199Z,14.95
2022-10-03T12:27:30.364Z,14.71
2022-10-03T12:30:06.531Z,14.59
2022-10-03T12:32:49.656Z,14.41
2022-10-03T12:35:36.317Z,14.11
2022-10-03T12:38:22.916Z,14.15
2022-10-03T12:41:03.802Z,14.09
2022-10-03T12:43:52.303Z,14.08
2022-10-03T12:46:33.504Z,14.40
2022-10-03T12:49:08.117Z,14.76
2022-10-03T12:51:50.822Z,15.12
2022-10-03T12:54:40.738Z,15.22
2022-10-03T12:57:36.250Z,15.23
2022-10-03T13:00:17.418Z,15.21
2022-10-03T13:02:58.378Z,15.40
2022-10-03T13:05:44.117Z,15.51
2022-10-03T13:08:30.540Z,15.55
2022-10-03T13:11:11.826Z,15.87
2022-10-03T13:13:53.287Z,15.86
2022-10-03T13:16:31.965Z,15.93
2022-10-03T13:19:06.737Z,16.04
2022-10-03T13:22:03.594Z,16.07
2022-10-03T13:24:40.621Z,16.14
2022-10-03T13:27:30.550Z,15.87
2022-10-03T13:30:09.769Z,15.95
2022-10-03T13:32:46.101Z,15.74
2022-10-03T13:35:37.286Z,15.68
2022-10-03T13:38:26.618Z,15.55
2022-10-03T13:41:05.454Z,15.50
2022-10-03T13:43:38.868Z,15.46
2022-10-03T13:46:16.583Z,15.48
2022-10-03T13:49:01.765Z,15.66
2022-10-03T13:51:44.787Z,15.66
2022-10-03T13:54:24.097Z,15.53
2022-10-03T13:56:59.495Z,15.46
2022-10-03T13:59:54.414Z,15.31
2022-10-03T14:03:08.798Z,15.19
2022-10-03T14:05:53.340Z,14.99
2022-10-03T14:08:38.629Z,14.97
2022-10-03T14:11:28.003Z,14.88
2022-10-03T14:14:35.999Z,14.71
2022-10-03T14:17:14.404Z,14.77
2022-10-03T14:19:58.666Z,14.64
2022-10-03T14:22:45.500Z,14.69
2022-10-03T14:25:28.279Z,14.71
2022-10-03T14:28:05.834Z,14.73
2022-10-03T14:31:05.156Z,14.64
2022-10-03T14:33:43.959Z,14.64
2022-10-03T14:36:27.285Z,14.61
2022-10-03T14:39:09.242Z,14.81
2022-10-03T14:41:48.722Z,14.90
2022-10-03T14:44:23.118Z,15.02
2022-10-03T14:47:00.454Z,14.85
2022-10-03T14:49:53.528Z,14.89
2022-10-03T14:52:30.972Z,14.92
2022-10-03T14:55:16.029Z,14.94
2022-10-03T14:58:09.830Z,14.88
2022-10-03T15:00:45.454Z,14.94
2022-10-03T15:03:45.790Z,15.01
2022-10-03T15:06:38.127Z,15.03
2022-10-03T15:09:13.526Z,15.08
2022-10-03T15:11:53.728Z,15.03
2022-10-03T15:14:25.418Z,15.03
2022-10-03T15:16:57.745Z,15.06
2022-10-03T15:19:33.033Z,14.98
2022-10-03T15:22:10.357Z,14.87
2022-10-03T15:24:42.852Z,14.88
2022-10-03T15:27:22.551Z,14.86
2022-10-03T15:29:57.589Z,14.94
2022-10-03T15:32:31.133Z,14.81
2022-10-03T15:35:03.845Z,14.69
2022-10-03T15:37:37.584Z,14.77
2022-10-03T15:40:12.763Z,14.73
2022-10-03T15:43:05.219Z,14.73
2022-10-03T15:45:37.479Z,14.65
2022-10-03T15:48:13.321Z,14.64
2022-10-03T15:50:47.594Z,14.52
2022-10-03T15:53:36.025Z,14.49
2022-10-03T15:56:16.038Z,14.37
2022-10-03T15:58:53.075Z,14.36
2022-10-03T16:01:25.750Z,14.38
2022-10-03T16:03:59.483Z,14.29
2022-10-03T16:06:37.159Z,14.24
2022-10-03T16:09:17.055Z,14.09
2022-10-03T16:11:57.226Z,14.00
2022-10-03T16:14:34.592Z,13.88
2022-10-03T16:17:13.074Z,13.83
2022-10-03T16:19:45.290Z,13.79
2022-10-03T16:22:25.358Z,13.69
2022-10-03T16:25:08.129Z,13.61
2022-10-03T16:27:42.579Z,13.48
2022-10-03T16:30:25.165Z,13.37
2022-10-03T16:33:04.765Z,13.30
2022-10-03T16:35:39.090Z,13.25
2022-10-03T16:38:27.385Z,13.22
2022-10-03T16:41:01.298Z,13.05
2022-10-03T16:43:34.816Z,13.07
2022-10-03T16:46:15.220Z,12.91
2022-10-03T16:48:59.679Z,12.83
2022-10-03T16:51:39.249Z,12.75
2022-10-03T16:54:14.966Z,12.64
2022-10-03T16:56:49.126Z,12.64
2022-10-03T16:59:21.902Z,12.59
2022-10-03T17:01:58.621Z,12.59
2022-10-03T17:04:32.956Z,12.38
2022-10-03T17:07:05.033Z,12.36
2022-10-03T17:09:43.535Z,12.22
2022-10-03T17:12:20.301Z,12.24
2022-10-03T17:14:51.643Z,12.10
2022-10-03T17:17:33.089Z,12.05
2022-10-03T17:20:08.631Z,11.92
2022-10-03T17:22:43.482Z,11.78
2022-10-03T17:25:39.502Z,11.70
2022-10-03T17:28:16.896Z,11.58
2022-10-03T17:30:51.257Z,11.56
2022-10-03T17:33:28.709Z,11.57
2022-10-03T17:36:08.016Z,11.50
2022-10-03T17:38:50.114Z,11.47
2022-10-03T17:41:24.460Z,11.50
2022-10-03T17:44:06.007Z,11.50
2022-10-03T17:46:46.033Z,11.49
2022-10-03T17:49:31.749Z,11.35
2022-10-03T17:52:02.014Z,11.36
2022-10-03T17:54:36.110Z,11.50
2022-10-03T17:57:11.038Z,11.39
2022-10-03T17:59:50.779Z,11.48
2022-10-03T18:02:25.632Z,11.31
2022-10-03T18:05:06.409Z,11.36
2022-10-03T18:07:38.639Z,11.37
2022-10-03T18:10:19.330Z,11.16
2022-10-03T18:12:53.864Z,11.28
2022-10-03T18:15:48.483Z,11.06
2022-10-03T18:18:56.588Z,11.00
2022-10-03T18:21:39.645Z,10.85
2022-10-03T18:24:36.393Z,10.77
2022-10-03T18:27:26.580Z,10.77
2022-10-03T18:30:05.836Z,10.80
2022-10-03T18:32:40.477Z,10.87
2022-10-03T18:35:16.802Z,10.89
2022-10-03T18:38:08.148Z,10.79
2022-10-03T18:40:46.631Z,10.79
2022-10-03T18:43:29.379Z,10.63
2022-10-03T18:46:07.872Z,10.62
2022-10-03T18:48:44.089Z,10.57
2022-10-03T18:51:19.311Z,10.36
2022-10-03T18:53:58.372Z,10.35
2022-10-03T18:56:29.923Z,10.22
2022-10-03T18:59:18.699Z,10.14
2022-10-03T19:01:55.040Z,10.23
2022-10-03T19:04:39.295Z,10.40
2022-10-03T19:07:19.914Z,10.39
2022-10-03T19:10:14.493Z,10.31
2022-10-03T19:12:49.325Z,10.02
2022-10-03T19:15:24.409Z,9.93
2022-10-03T19:18:09.642Z,10.01
2022-10-03T19:20:44.277Z,10.13
2022-10-03T19:23:18.994Z,10.36
2022-10-03T19:25:58.788Z,10.30
2022-10-03T19:28:33.751Z,10.28
2022-10-03T19:31:08.574Z,10.16
2022-10-03T19:33:46.573Z,10.17
2022-10-03T19:36:20.004Z,10.13
2022-10-03T19:38:51.117Z,10.01
2022-10-03T19:41:31.236Z,9.91
2022-10-03T19:44:06.903Z,9.93
2022-10-03T19:46:55.185Z,10.18
2022-10-03T19:49:31.996Z,10.29
2022-10-03T19:52:19.324Z,9.95
2022-10-03T19:54:57.459Z,9.89
2022-10-03T19:57:40.814Z,9.87
2022-10-03T20:00:24.303Z,9.86
2022-10-03T20:03:01.678Z,9.79
2022-10-03T20:05:39.588Z,9.94
2022-10-03T20:08:24.127Z,9.89
2022-10-03T20:11:07.497Z,9.98
2022-10-03T20:13:46.980Z,9.97
2022-10-03T20:16:18.727Z,10.12
2022-10-03T20:18:52.093Z,10.04
2022-10-03T20:21:25.139Z,9.93
2022-10-03T20:23:56.847Z,9.88
2022-10-03T20:26:36.208Z,10.00
2022-10-03T20:29:23.133Z,9.70
2022-10-03T20:31:54.345Z,9.53
2022-10-03T20:34:27.254Z,9.72
2022-10-03T20:37:11.025Z,9.71
2022-10-03T20:39:44.948Z,9.99
2022-10-03T20:42:19.691Z,9.99
2022-10-03T20:45:04.531Z,10.00
2022-10-03T20:47:56.826Z,9.76
2022-10-03T20:50:29.788Z,9.63
2022-10-03T20:53:02.566Z,9.64
2022-10-03T20:55:36.181Z,9.49
2022-10-03T20:58:30.379Z,9.63
2022-10-03T21:01:08.934Z,9.46
2022-10-03T21:03:43.839Z,9.38
2022-10-03T21:06:24.625Z,9.29
2022-10-03T21:08:57.110Z,9.55
2022-10-03T21:11:30.938Z,9.43
2022-10-03T21:14:03.323Z,9.55
2022-10-03T21:16:38.788Z,9.60
2022-10-03T21:19:18.841Z,9.60
2022-10-03T21:21:54.389Z,9.60
2022-10-03T21:24:31.468Z,9.52
2022-10-03T21:27:05.571Z,9.24
2022-10-03T21:29:37.023Z,9.23
2022-10-03T21:32:29.956Z,9.04
2022-10-03T21:35:10.449Z,9.09
2022-10-03T21:37:47.424Z,9.11
2022-10-03T21:40:33.718Z,9.12
2022-10-03T21:43:14.665Z,9.05
2022-10-03T21:45:54.597Z,9.16
2022-10-03T21:48:35.597Z,9.12
2022-10-03T21:51:15.131Z,9.11
2022-10-03T21:53:53.941Z,9.19
2022-10-03T21:56:45.679Z,9.09
2022-10-03T21:59:38.329Z,9.22
2022-10-03T22:02:18.251Z,9.14
2022-10-03T22:04:57.041Z,9.15
2022-10-03T22:07:38.143Z,9.13
2022-10-03T22:10:21.450Z,9.06
2022-10-03T22:12:54.662Z,8.92
2022-10-03T22:15:32.839Z,8.57
2022-10-03T22:18:06.609Z,8.65
2022-10-03T22:20:40.336Z,8.56
2022-10-03T22:23:32.796Z,8.40
2022-10-03T22:26:14.649Z,8.28
2022-10-03T22:28:56.039Z,8.40
2022-10-03T22:31:34.076Z,8.08
2022-10-03T22:34:22.149Z,7.92
2022-10-03T22:36:54.893Z,8.09
2022-10-03T22:39:25.686Z,7.95
2022-10-03T22:42:00.456Z,7.97
2022-10-03T22:44:33.530Z,8.25
2022-10-03T22:47:10.012Z,8.55
2022-10-03T22:49:44.311Z,8.76
2022-10-03T22:52:21.558Z,8.44
2022-10-03T22:54:53.685Z,8.40
2022-10-03T22:57:25.653Z,8.40
2022-10-03T22:59:59.756Z,8.31
2022-10-03T23:02:33.351Z,8.16
2022-10-03T23:05:06.711Z,8.36
2022-10-03T23:07:58.108Z,8.08
2022-10-03T23:10:50.704Z,7.76
2022-10-03T23:13:27.968Z,7.97
2022-10-03T23:16:08.197Z,8.18
2022-10-03T23:19:08.424Z,8.15
2022-10-03T23:21:48.067Z,8.03
2022-10-03T23:24:28.852Z,8.39
2022-10-03T23:27:28.315Z,8.58
2022-10-03T23:30:33.793Z,8.33
2022-10-03T23:33:03.839Z,8.04
2022-10-03T23:35:41.903Z,7.97
2022-10-03T23:38:41.427Z,8.09
2022-10-03T23:41:17.293Z,8.25
2022-10-03T23:43:52.230Z,8.30
2022-10-03T23:46:25.590Z,8.19
2022-10-03T23:48:57.926Z,8.17
2022-10-03T23:51:32.043Z,8.08
2022-10-03T23:54:04.922Z,7.84
2022-10-03T23:56:41.300Z,7.83
2022-10-03T23:59:25.448Z,7.88
